sensor_id;sensor_type;location;lat;lon;timestamp;P1;durP1;ratioP1;P2;durP2;ratioP2
70406;SDS011;57821;52.202;0.154;2022-07-03T00:01:58;5.78;;;1.55;;
70406;SDS011;57821;52.202;0.154;2022-07-03T00:04:26;7.28;;;1.70;;
70406;SDS011;57821;52.202;0.154;2022-07-03T00:06:53;8.23;;;1.85;;
70406;SDS011;57821;52.202;0.154;2022-07-03T00:09:21;7.97;;;1.67;;
70406;SDS011;57821;52.202;0.154;2022-07-03T00:11:48;10.50;;;2.45;;
70406;SDS011;57821;52.202;0.154;2022-07-03T00:14:15;8.32;;;2.00;;
70406;SDS011;57821;52.202;0.154;2022-07-03T00:16:42;6.38;;;1.70;;
70406;SDS011;57821;52.202;0.154;2022-07-03T00:19:09;5.93;;;1.80;;
70406;SDS011;57821;52.202;0.154;2022-07-03T00:21:46;13.07;;;1.73;;
70406;SDS011;57821;52.202;0.154;2022-07-03T00:27:07;9.13;;;1.98;;
70406;SDS011;57821;52.202;0.154;2022-07-03T00:29:36;9.13;;;1.95;;
70406;SDS011;57821;52.202;0.154;2022-07-03T00:32:08;8.65;;;1.60;;
70406;SDS011;57821;52.202;0.154;2022-07-03T00:34:37;10.80;;;1.98;;
70406;SDS011;57821;52.202;0.154;2022-07-03T00:37:08;7.75;;;1.65;;
70406;SDS011;57821;52.202;0.154;2022-07-03T00:39:37;5.88;;;1.58;;
70406;SDS011;57821;52.202;0.154;2022-07-03T00:42:06;16.73;;;2.33;;
70406;SDS011;57821;52.202;0.154;2022-07-03T00:44:42;7.40;;;2.00;;
70406;SDS011;57821;52.202;0.154;2022-07-03T00:47:20;6.72;;;1.98;;
70406;SDS011;57821;52.202;0.154;2022-07-03T00:49:49;9.50;;;1.80;;
70406;SDS011;57821;52.202;0.154;2022-07-03T00:52:18;8.32;;;1.85;;
70406;SDS011;57821;52.202;0.154;2022-07-03T00:54:53;7.10;;;2.00;;
70406;SDS011;57821;52.202;0.154;2022-07-03T00:57:21;5.68;;;1.83;;
70406;SDS011;57821;52.202;0.154;2022-07-03T00:59:50;5.60;;;1.55;;
70406;SDS011;57821;52.202;0.154;2022-07-03T01:12:56;12.82;;;2.35;;
70406;SDS011;57821;52.202;0.154;2022-07-03T01:15:40;8.98;;;2.33;;
70406;SDS011;57821;52.202;0.154;2022-07-03T01:18:52;11.40;;;1.55;;
70406;SDS011;57821;52.202;0.154;2022-07-03T01:21:08;8.30;;;1.60;;
70406;SDS011;57821;52.202;0.154;2022-07-03T01:23:56;8.57;;;2.10;;
70406;SDS011;57821;52.202;0.154;2022-07-03T01:26:38;11.90;;;1.90;;
70406;SDS011;57821;52.202;0.154;2022-07-03T01:31:36;13.20;;;2.38;;
70406;SDS011;57821;52.202;0.154;2022-07-03T01:34:06;12.55;;;1.88;;
70406;SDS011;57821;52.202;0.154;2022-07-03T01:36:38;9.73;;;1.73;;
70406;SDS011;57821;52.202;0.154;2022-07-03T01:39:08;8.88;;;2.05;;
70406;SDS011;57821;52.202;0.154;2022-07-03T01:41:40;9.73;;;2.22;;
70406;SDS011;57821;52.202;0.154;2022-07-03T01:44:06;9.00;;;2.22;;
70406;SDS011;57821;52.202;0.154;2022-07-03T01:49:06;7.90;;;1.50;;
70406;SDS011;57821;52.202;0.154;2022-07-03T01:51:38;7.68;;;1.60;;
70406;SDS011;57821;52.202;0.154;2022-07-03T01:54:09;10.45;;;1.85;;
70406;SDS011;57821;52.202;0.154;2022-07-03T01:56:37;8.18;;;1.70;;
70406;SDS011;57821;52.202;0.154;2022-07-03T01:59:04;8.18;;;1.73;;
70406;SDS011;57821;52.202;0.154;2022-07-03T02:01:33;12.35;;;1.80;;
70406;SDS011;57821;52.202;0.154;2022-07-03T02:04:04;13.20;;;1.92;;
70406;SDS011;57821;52.202;0.154;2022-07-03T02:06:39;11.60;;;1.90;;
70406;SDS011;57821;52.202;0.154;2022-07-03T02:09:11;8.35;;;1.75;;
70406;SDS011;57821;52.202;0.154;2022-07-03T02:11:58;6.70;;;1.58;;
70406;SDS011;57821;52.202;0.154;2022-07-03T02:14:32;10.38;;;1.50;;
70406;SDS011;57821;52.202;0.154;2022-07-03T02:17:18;12.48;;;1.88;;
70406;SDS011;57821;52.202;0.154;2022-07-03T02:22:20;11.05;;;1.58;;
70406;SDS011;57821;52.202;0.154;2022-07-03T02:24:53;11.43;;;1.73;;
70406;SDS011;57821;52.202;0.154;2022-07-03T02:27:28;7.85;;;2.42;;
70406;SDS011;57821;52.202;0.154;2022-07-03T02:30:06;8.25;;;1.60;;
70406;SDS011;57821;52.202;0.154;2022-07-03T02:32:35;11.48;;;1.60;;
70406;SDS011;57821;52.202;0.154;2022-07-03T02:35:05;10.70;;;1.50;;
70406;SDS011;57821;52.202;0.154;2022-07-03T02:37:45;8.98;;;1.80;;
70406;SDS011;57821;52.202;0.154;2022-07-03T02:40:20;11.07;;;2.13;;
70406;SDS011;57821;52.202;0.154;2022-07-03T02:45:56;10.70;;;1.83;;
70406;SDS011;57821;52.202;0.154;2022-07-03T02:48:32;6.82;;;1.67;;
70406;SDS011;57821;52.202;0.154;2022-07-03T02:51:07;8.30;;;1.80;;
70406;SDS011;57821;52.202;0.154;2022-07-03T02:54:02;9.23;;;2.05;;
70406;SDS011;57821;52.202;0.154;2022-07-03T03:02:47;10.68;;;2.00;;
70406;SDS011;57821;52.202;0.154;2022-07-03T03:05:13;10.85;;;1.67;;
70406;SDS011;57821;52.202;0.154;2022-07-03T03:10:34;7.00;;;1.40;;
70406;SDS011;57821;52.202;0.154;2022-07-03T03:13:09;7.28;;;1.50;;
70406;SDS011;57821;52.202;0.154;2022-07-03T03:15:38;13.02;;;1.42;;
70406;SDS011;57821;52.202;0.154;2022-07-03T03:18:13;6.43;;;1.50;;
70406;SDS011;57821;52.202;0.154;2022-07-03T03:20:48;11.02;;;1.55;;
70406;SDS011;57821;52.202;0.154;2022-07-03T03:24:05;7.78;;;1.55;;
70406;SDS011;57821;52.202;0.154;2022-07-03T03:26:17;8.43;;;1.50;;
70406;SDS011;57821;52.202;0.154;2022-07-03T03:28:49;7.88;;;1.38;;
70406;SDS011;57821;52.202;0.154;2022-07-03T03:31:17;11.60;;;1.50;;
70406;SDS011;57821;52.202;0.154;2022-07-03T03:33:46;9.23;;;1.75;;
70406;SDS011;57821;52.202;0.154;2022-07-03T03:36:14;12.20;;;1.70;;
70406;SDS011;57821;52.202;0.154;2022-07-03T03:38:43;9.63;;;1.40;;
70406;SDS011;57821;52.202;0.154;2022-07-03T03:41:10;10.02;;;1.40;;
70406;SDS011;57821;52.202;0.154;2022-07-03T03:43:43;7.78;;;1.67;;
70406;SDS011;57821;52.202;0.154;2022-07-03T03:46:10;7.35;;;1.88;;
70406;SDS011;57821;52.202;0.154;2022-07-03T03:48:37;10.38;;;1.55;;
70406;SDS011;57821;52.202;0.154;2022-07-03T03:51:04;9.85;;;2.15;;
70406;SDS011;57821;52.202;0.154;2022-07-03T03:53:31;8.15;;;1.98;;
70406;SDS011;57821;52.202;0.154;2022-07-03T03:58:33;9.48;;;1.58;;
70406;SDS011;57821;52.202;0.154;2022-07-03T04:01:02;6.18;;;1.80;;
70406;SDS011;57821;52.202;0.154;2022-07-03T04:03:30;5.63;;;1.90;;
70406;SDS011;57821;52.202;0.154;2022-07-03T04:05:58;12.27;;;2.15;;
70406;SDS011;57821;52.202;0.154;2022-07-03T04:08:26;6.53;;;1.73;;
70406;SDS011;57821;52.202;0.154;2022-07-03T04:10:53;10.18;;;1.88;;
70406;SDS011;57821;52.202;0.154;2022-07-03T04:13:20;8.68;;;3.17;;
70406;SDS011;57821;52.202;0.154;2022-07-03T04:15:48;11.73;;;2.58;;
70406;SDS011;57821;52.202;0.154;2022-07-03T04:18:15;11.27;;;2.35;;
70406;SDS011;57821;52.202;0.154;2022-07-03T04:20:42;6.57;;;1.60;;
70406;SDS011;57821;52.202;0.154;2022-07-03T04:23:09;9.77;;;1.50;;
70406;SDS011;57821;52.202;0.154;2022-07-03T04:25:36;9.65;;;1.63;;
70406;SDS011;57821;52.202;0.154;2022-07-03T04:28:03;9.27;;;2.15;;
70406;SDS011;57821;52.202;0.154;2022-07-03T04:30:46;12.70;;;2.05;;
70406;SDS011;57821;52.202;0.154;2022-07-03T04:33:13;11.88;;;1.90;;
70406;SDS011;57821;52.202;0.154;2022-07-03T04:35:40;7.35;;;1.63;;
70406;SDS011;57821;52.202;0.154;2022-07-03T04:38:07;10.75;;;1.75;;
70406;SDS011;57821;52.202;0.154;2022-07-03T04:40:33;12.57;;;1.63;;
70406;SDS011;57821;52.202;0.154;2022-07-03T04:43:00;8.70;;;1.50;;
70406;SDS011;57821;52.202;0.154;2022-07-03T04:45:27;9.07;;;2.13;;
70406;SDS011;57821;52.202;0.154;2022-07-03T04:47:53;13.35;;;1.95;;
70406;SDS011;57821;52.202;0.154;2022-07-03T04:50:20;9.93;;;1.52;;
70406;SDS011;57821;52.202;0.154;2022-07-03T04:52:46;7.40;;;1.80;;
70406;SDS011;57821;52.202;0.154;2022-07-03T04:55:13;8.55;;;1.65;;
70406;SDS011;57821;52.202;0.154;2022-07-03T04:57:40;13.45;;;1.85;;
70406;SDS011;57821;52.202;0.154;2022-07-03T05:00:07;11.90;;;2.03;;
70406;SDS011;57821;52.202;0.154;2022-07-03T05:02:34;11.75;;;3.03;;
70406;SDS011;57821;52.202;0.154;2022-07-03T05:05:00;7.90;;;2.35;;
70406;SDS011;57821;52.202;0.154;2022-07-03T05:07:27;6.13;;;1.67;;
70406;SDS011;57821;52.202;0.154;2022-07-03T05:09:54;10.07;;;2.53;;
70406;SDS011;57821;52.202;0.154;2022-07-03T05:12:20;7.55;;;2.33;;
70406;SDS011;57821;52.202;0.154;2022-07-03T05:14:47;14.52;;;2.10;;
70406;SDS011;57821;52.202;0.154;2022-07-03T05:17:16;8.40;;;1.77;;
70406;SDS011;57821;52.202;0.154;2022-07-03T05:19:43;11.82;;;2.10;;
70406;SDS011;57821;52.202;0.154;2022-07-03T05:22:11;10.38;;;1.48;;
70406;SDS011;57821;52.202;0.154;2022-07-03T05:24:37;6.95;;;1.67;;
70406;SDS011;57821;52.202;0.154;2022-07-03T05:27:04;11.98;;;1.90;;
70406;SDS011;57821;52.202;0.154;2022-07-03T05:29:31;10.13;;;1.73;;
70406;SDS011;57821;52.202;0.154;2022-07-03T05:32:03;13.10;;;2.17;;
70406;SDS011;57821;52.202;0.154;2022-07-03T05:34:31;7.10;;;1.52;;
70406;SDS011;57821;52.202;0.154;2022-07-03T05:36:58;8.70;;;1.83;;
70406;SDS011;57821;52.202;0.154;2022-07-03T05:39:24;8.77;;;1.75;;
70406;SDS011;57821;52.202;0.154;2022-07-03T05:41:51;8.50;;;2.00;;
70406;SDS011;57821;52.202;0.154;2022-07-03T05:44:18;9.15;;;1.60;;
70406;SDS011;57821;52.202;0.154;2022-07-03T05:46:45;10.07;;;1.88;;
70406;SDS011;57821;52.202;0.154;2022-07-03T05:49:12;6.53;;;1.50;;
70406;SDS011;57821;52.202;0.154;2022-07-03T05:51:38;10.02;;;1.48;;
70406;SDS011;57821;52.202;0.154;2022-07-03T05:54:06;10.45;;;1.77;;
70406;SDS011;57821;52.202;0.154;2022-07-03T05:56:32;8.60;;;1.58;;
70406;SDS011;57821;52.202;0.154;2022-07-03T05:58:59;9.68;;;2.05;;
70406;SDS011;57821;52.202;0.154;2022-07-03T06:01:26;6.70;;;1.27;;
70406;SDS011;57821;52.202;0.154;2022-07-03T06:03:53;9.50;;;1.73;;
70406;SDS011;57821;52.202;0.154;2022-07-03T06:06:20;10.18;;;2.08;;
70406;SDS011;57821;52.202;0.154;2022-07-03T06:08:47;12.23;;;1.40;;
70406;SDS011;57821;52.202;0.154;2022-07-03T06:11:14;6.88;;;1.58;;
70406;SDS011;57821;52.202;0.154;2022-07-03T06:13:41;8.45;;;1.42;;
70406;SDS011;57821;52.202;0.154;2022-07-03T06:16:07;7.60;;;1.40;;
70406;SDS011;57821;52.202;0.154;2022-07-03T06:18:34;7.72;;;1.20;;
70406;SDS011;57821;52.202;0.154;2022-07-03T06:21:01;10.55;;;1.60;;
70406;SDS011;57821;52.202;0.154;2022-07-03T06:23:27;7.47;;;1.50;;
70406;SDS011;57821;52.202;0.154;2022-07-03T06:26:11;8.60;;;2.22;;
70406;SDS011;57821;52.202;0.154;2022-07-03T06:28:38;10.32;;;2.10;;
70406;SDS011;57821;52.202;0.154;2022-07-03T06:31:05;9.55;;;1.58;;
70406;SDS011;57821;52.202;0.154;2022-07-03T06:33:32;8.90;;;1.80;;
70406;SDS011;57821;52.202;0.154;2022-07-03T06:35:59;13.77;;;2.42;;
70406;SDS011;57821;52.202;0.154;2022-07-03T06:38:25;7.20;;;1.63;;
70406;SDS011;57821;52.202;0.154;2022-07-03T06:40:52;8.43;;;1.67;;
70406;SDS011;57821;52.202;0.154;2022-07-03T06:43:19;8.88;;;1.42;;
70406;SDS011;57821;52.202;0.154;2022-07-03T06:45:48;10.10;;;1.40;;
70406;SDS011;57821;52.202;0.154;2022-07-03T06:48:15;9.73;;;1.98;;
70406;SDS011;57821;52.202;0.154;2022-07-03T06:50:41;7.97;;;1.58;;
70406;SDS011;57821;52.202;0.154;2022-07-03T06:53:08;6.07;;;1.58;;
70406;SDS011;57821;52.202;0.154;2022-07-03T06:55:35;9.25;;;1.58;;
70406;SDS011;57821;52.202;0.154;2022-07-03T06:58:01;6.95;;;1.48;;
70406;SDS011;57821;52.202;0.154;2022-07-03T07:00:28;6.25;;;1.58;;
70406;SDS011;57821;52.202;0.154;2022-07-03T07:02:55;5.63;;;1.40;;
70406;SDS011;57821;52.202;0.154;2022-07-03T07:05:25;7.35;;;1.60;;
70406;SDS011;57821;52.202;0.154;2022-07-03T07:07:52;11.15;;;1.50;;
70406;SDS011;57821;52.202;0.154;2022-07-03T07:10:19;8.20;;;1.50;;
70406;SDS011;57821;52.202;0.154;2022-07-03T07:12:45;5.07;;;1.20;;
70406;SDS011;57821;52.202;0.154;2022-07-03T07:15:12;7.30;;;1.58;;
70406;SDS011;57821;52.202;0.154;2022-07-03T07:17:38;8.65;;;1.88;;
70406;SDS011;57821;52.202;0.154;2022-07-03T07:20:05;5.93;;;1.00;;
70406;SDS011;57821;52.202;0.154;2022-07-03T07:22:32;6.78;;;1.30;;
70406;SDS011;57821;52.202;0.154;2022-07-03T07:24:58;7.00;;;1.30;;
70406;SDS011;57821;52.202;0.154;2022-07-03T07:27:25;11.75;;;1.70;;
70406;SDS011;57821;52.202;0.154;2022-07-03T07:29:51;7.80;;;1.48;;
70406;SDS011;57821;52.202;0.154;2022-07-03T07:32:18;6.72;;;1.40;;
70406;SDS011;57821;52.202;0.154;2022-07-03T07:34:45;6.13;;;1.15;;
70406;SDS011;57821;52.202;0.154;2022-07-03T07:37:11;5.72;;;1.30;;
70406;SDS011;57821;52.202;0.154;2022-07-03T07:39:38;6.85;;;1.15;;
70406;SDS011;57821;52.202;0.154;2022-07-03T07:42:04;9.38;;;1.55;;
70406;SDS011;57821;52.202;0.154;2022-07-03T07:44:31;5.50;;;1.50;;
70406;SDS011;57821;52.202;0.154;2022-07-03T07:46:57;9.48;;;1.35;;
70406;SDS011;57821;52.202;0.154;2022-07-03T07:49:24;11.18;;;1.38;;
70406;SDS011;57821;52.202;0.154;2022-07-03T07:51:51;8.48;;;1.33;;
70406;SDS011;57821;52.202;0.154;2022-07-03T07:54:17;6.95;;;1.02;;
70406;SDS011;57821;52.202;0.154;2022-07-03T07:56:44;6.68;;;1.20;;
70406;SDS011;57821;52.202;0.154;2022-07-03T07:59:10;6.78;;;1.33;;
70406;SDS011;57821;52.202;0.154;2022-07-03T08:01:37;4.95;;;1.02;;
70406;SDS011;57821;52.202;0.154;2022-07-03T08:04:04;5.38;;;1.33;;
70406;SDS011;57821;52.202;0.154;2022-07-03T08:06:30;7.47;;;1.33;;
70406;SDS011;57821;52.202;0.154;2022-07-03T08:08:57;9.55;;;1.45;;
70406;SDS011;57821;52.202;0.154;2022-07-03T08:11:23;10.40;;;1.65;;
70406;SDS011;57821;52.202;0.154;2022-07-03T08:13:50;7.57;;;1.40;;
70406;SDS011;57821;52.202;0.154;2022-07-03T08:16:16;7.40;;;1.50;;
70406;SDS011;57821;52.202;0.154;2022-07-03T08:18:43;9.75;;;1.65;;
70406;SDS011;57821;52.202;0.154;2022-07-03T08:21:09;7.07;;;1.50;;
70406;SDS011;57821;52.202;0.154;2022-07-03T08:23:36;5.82;;;1.48;;
70406;SDS011;57821;52.202;0.154;2022-07-03T08:26:03;6.18;;;1.80;;
70406;SDS011;57821;52.202;0.154;2022-07-03T08:28:29;8.98;;;2.55;;
70406;SDS011;57821;52.202;0.154;2022-07-03T08:30:56;9.70;;;1.38;;
70406;SDS011;57821;52.202;0.154;2022-07-03T08:33:22;8.32;;;1.50;;
70406;SDS011;57821;52.202;0.154;2022-07-03T08:35:49;6.65;;;1.48;;
70406;SDS011;57821;52.202;0.154;2022-07-03T08:38:15;9.23;;;1.73;;
70406;SDS011;57821;52.202;0.154;2022-07-03T08:40:43;6.53;;;1.38;;
70406;SDS011;57821;52.202;0.154;2022-07-03T08:43:11;7.45;;;1.40;;
70406;SDS011;57821;52.202;0.154;2022-07-03T08:45:37;8.00;;;1.38;;
70406;SDS011;57821;52.202;0.154;2022-07-03T08:48:05;6.97;;;1.42;;
70406;SDS011;57821;52.202;0.154;2022-07-03T08:50:33;6.32;;;1.42;;
70406;SDS011;57821;52.202;0.154;2022-07-03T08:53:02;10.00;;;1.67;;
70406;SDS011;57821;52.202;0.154;2022-07-03T08:55:29;7.13;;;1.20;;
70406;SDS011;57821;52.202;0.154;2022-07-03T08:58:00;8.95;;;1.85;;
70406;SDS011;57821;52.202;0.154;2022-07-03T09:00:28;9.10;;;1.38;;
70406;SDS011;57821;52.202;0.154;2022-07-03T09:02:54;7.93;;;1.55;;
70406;SDS011;57821;52.202;0.154;2022-07-03T09:05:23;5.93;;;1.27;;
70406;SDS011;57821;52.202;0.154;2022-07-03T09:07:49;6.05;;;1.20;;
70406;SDS011;57821;52.202;0.154;2022-07-03T09:10:18;7.90;;;1.35;;
70406;SDS011;57821;52.202;0.154;2022-07-03T09:12:45;7.38;;;1.27;;
70406;SDS011;57821;52.202;0.154;2022-07-03T09:15:13;6.22;;;1.30;;
70406;SDS011;57821;52.202;0.154;2022-07-03T09:17:40;10.95;;;1.70;;
70406;SDS011;57821;52.202;0.154;2022-07-03T09:20:22;6.85;;;1.35;;
70406;SDS011;57821;52.202;0.154;2022-07-03T09:22:54;10.60;;;1.55;;
70406;SDS011;57821;52.202;0.154;2022-07-03T09:28:19;6.22;;;1.10;;
70406;SDS011;57821;52.202;0.154;2022-07-03T09:31:06;8.80;;;1.58;;
70406;SDS011;57821;52.202;0.154;2022-07-03T09:33:33;4.55;;;1.30;;
70406;SDS011;57821;52.202;0.154;2022-07-03T09:36:00;6.72;;;1.63;;
70406;SDS011;57821;52.202;0.154;2022-07-03T09:38:26;7.47;;;1.48;;
70406;SDS011;57821;52.202;0.154;2022-07-03T09:40:53;6.60;;;1.70;;
70406;SDS011;57821;52.202;0.154;2022-07-03T09:43:22;5.70;;;1.17;;
70406;SDS011;57821;52.202;0.154;2022-07-03T09:51:19;7.38;;;1.30;;
70406;SDS011;57821;52.202;0.154;2022-07-03T09:54:00;7.35;;;1.80;;
70406;SDS011;57821;52.202;0.154;2022-07-03T09:56:28;8.82;;;1.63;;
70406;SDS011;57821;52.202;0.154;2022-07-03T09:59:04;6.97;;;1.33;;
70406;SDS011;57821;52.202;0.154;2022-07-03T10:01:32;8.18;;;1.10;;
70406;SDS011;57821;52.202;0.154;2022-07-03T10:06:45;6.57;;;1.20;;
70406;SDS011;57821;52.202;0.154;2022-07-03T10:09:16;4.50;;;1.17;;
70406;SDS011;57821;52.202;0.154;2022-07-03T10:11:43;7.43;;;1.25;;
70406;SDS011;57821;52.202;0.154;2022-07-03T10:14:13;8.75;;;1.52;;
70406;SDS011;57821;52.202;0.154;2022-07-03T10:16:41;3.83;;;0.93;;
70406;SDS011;57821;52.202;0.154;2022-07-03T10:19:11;7.85;;;1.88;;
70406;SDS011;57821;52.202;0.154;2022-07-03T10:21:40;7.53;;;1.02;;
70406;SDS011;57821;52.202;0.154;2022-07-03T10:24:08;5.97;;;1.50;;
70406;SDS011;57821;52.202;0.154;2022-07-03T10:26:36;5.60;;;1.73;;
70406;SDS011;57821;52.202;0.154;2022-07-03T10:29:05;7.03;;;1.20;;
70406;SDS011;57821;52.202;0.154;2022-07-03T10:31:34;4.60;;;0.90;;
70406;SDS011;57821;52.202;0.154;2022-07-03T10:34:00;4.93;;;1.20;;
70406;SDS011;57821;52.202;0.154;2022-07-03T10:36:27;5.40;;;0.90;;
70406;SDS011;57821;52.202;0.154;2022-07-03T10:38:55;5.68;;;0.90;;
70406;SDS011;57821;52.202;0.154;2022-07-03T10:41:30;3.60;;;1.00;;
70406;SDS011;57821;52.202;0.154;2022-07-03T10:44:00;5.90;;;1.10;;
70406;SDS011;57821;52.202;0.154;2022-07-03T10:46:27;8.15;;;1.35;;
70406;SDS011;57821;52.202;0.154;2022-07-03T10:54:32;6.50;;;1.08;;
70406;SDS011;57821;52.202;0.154;2022-07-03T10:57:15;5.18;;;0.85;;
70406;SDS011;57821;52.202;0.154;2022-07-03T11:07:34;5.60;;;1.00;;
70406;SDS011;57821;52.202;0.154;2022-07-03T11:25:45;4.78;;;0.75;;
70406;SDS011;57821;52.202;0.154;2022-07-03T11:38:37;4.78;;;1.00;;
70406;SDS011;57821;52.202;0.154;2022-07-03T11:41:08;4.63;;;1.10;;
70406;SDS011;57821;52.202;0.154;2022-07-03T11:43:36;5.72;;;0.95;;
70406;SDS011;57821;52.202;0.154;2022-07-03T11:46:02;3.58;;;0.93;;
70406;SDS011;57821;52.202;0.154;2022-07-03T11:48:30;3.45;;;0.65;;
70406;SDS011;57821;52.202;0.154;2022-07-03T11:51:01;2.75;;;0.60;;
70406;SDS011;57821;52.202;0.154;2022-07-03T11:53:30;6.53;;;0.90;;
70406;SDS011;57821;52.202;0.154;2022-07-03T11:59:03;4.45;;;1.17;;
70406;SDS011;57821;52.202;0.154;2022-07-03T12:06:20;4.53;;;1.08;;
70406;SDS011;57821;52.202;0.154;2022-07-03T12:08:47;3.05;;;0.57;;
70406;SDS011;57821;52.202;0.154;2022-07-03T12:11:14;4.07;;;0.73;;
70406;SDS011;57821;52.202;0.154;2022-07-03T12:13:42;3.72;;;0.55;;
70406;SDS011;57821;52.202;0.154;2022-07-03T12:16:13;3.00;;;0.60;;
70406;SDS011;57821;52.202;0.154;2022-07-03T12:18:41;4.00;;;0.60;;
70406;SDS011;57821;52.202;0.154;2022-07-03T12:21:21;4.07;;;0.60;;
70406;SDS011;57821;52.202;0.154;2022-07-03T12:23:53;5.97;;;1.55;;
70406;SDS011;57821;52.202;0.154;2022-07-03T12:26:30;3.63;;;0.70;;
70406;SDS011;57821;52.202;0.154;2022-07-03T12:28:59;3.47;;;0.77;;
70406;SDS011;57821;52.202;0.154;2022-07-03T12:31:27;4.07;;;0.70;;
70406;SDS011;57821;52.202;0.154;2022-07-03T12:33:54;2.83;;;0.47;;
70406;SDS011;57821;52.202;0.154;2022-07-03T12:36:22;3.03;;;0.60;;
70406;SDS011;57821;52.202;0.154;2022-07-03T12:38:48;4.28;;;0.82;;
70406;SDS011;57821;52.202;0.154;2022-07-03T12:41:15;3.42;;;0.80;;
70406;SDS011;57821;52.202;0.154;2022-07-03T12:43:44;2.92;;;0.88;;
70406;SDS011;57821;52.202;0.154;2022-07-03T12:46:25;1.75;;;0.45;;
70406;SDS011;57821;52.202;0.154;2022-07-03T12:48:58;2.25;;;0.50;;
70406;SDS011;57821;52.202;0.154;2022-07-03T12:51:36;3.63;;;0.57;;
70406;SDS011;57821;52.202;0.154;2022-07-03T12:54:31;4.18;;;1.10;;
70406;SDS011;57821;52.202;0.154;2022-07-03T12:57:03;3.63;;;0.73;;
70406;SDS011;57821;52.202;0.154;2022-07-03T12:59:31;4.68;;;0.70;;
70406;SDS011;57821;52.202;0.154;2022-07-03T13:02:02;3.63;;;0.70;;
70406;SDS011;57821;52.202;0.154;2022-07-03T13:04:31;5.05;;;0.60;;
70406;SDS011;57821;52.202;0.154;2022-07-03T13:07:06;2.72;;;0.52;;
70406;SDS011;57821;52.202;0.154;2022-07-03T13:09:34;2.83;;;0.50;;
70406;SDS011;57821;52.202;0.154;2022-07-03T13:12:01;2.95;;;0.57;;
70406;SDS011;57821;52.202;0.154;2022-07-03T13:14:29;4.72;;;0.60;;
70406;SDS011;57821;52.202;0.154;2022-07-03T13:16:56;4.38;;;0.70;;
70406;SDS011;57821;52.202;0.154;2022-07-03T13:19:24;3.50;;;0.80;;
70406;SDS011;57821;52.202;0.154;2022-07-03T13:21:55;5.45;;;0.57;;
70406;SDS011;57821;52.202;0.154;2022-07-03T13:24:23;3.17;;;0.63;;
70406;SDS011;57821;52.202;0.154;2022-07-03T13:26:50;4.05;;;0.85;;
70406;SDS011;57821;52.202;0.154;2022-07-03T13:29:20;2.80;;;0.70;;
70406;SDS011;57821;52.202;0.154;2022-07-03T13:31:47;4.45;;;0.95;;
70406;SDS011;57821;52.202;0.154;2022-07-03T13:34:14;5.43;;;1.38;;
70406;SDS011;57821;52.202;0.154;2022-07-03T13:36:40;6.30;;;1.13;;
70406;SDS011;57821;52.202;0.154;2022-07-03T13:39:07;4.20;;;1.33;;
70406;SDS011;57821;52.202;0.154;2022-07-03T13:41:34;3.45;;;0.90;;
70406;SDS011;57821;52.202;0.154;2022-07-03T13:44:00;2.38;;;0.57;;
70406;SDS011;57821;52.202;0.154;2022-07-03T13:46:27;4.18;;;0.80;;
70406;SDS011;57821;52.202;0.154;2022-07-03T13:48:53;5.90;;;1.00;;
70406;SDS011;57821;52.202;0.154;2022-07-03T13:51:20;3.95;;;0.63;;
70406;SDS011;57821;52.202;0.154;2022-07-03T13:53:47;3.10;;;0.60;;
70406;SDS011;57821;52.202;0.154;2022-07-03T13:56:15;5.20;;;1.52;;
70406;SDS011;57821;52.202;0.154;2022-07-03T13:58:42;6.43;;;1.50;;
70406;SDS011;57821;52.202;0.154;2022-07-03T14:01:16;4.93;;;0.80;;
70406;SDS011;57821;52.202;0.154;2022-07-03T14:03:43;3.65;;;0.70;;
70406;SDS011;57821;52.202;0.154;2022-07-03T14:06:09;4.28;;;1.00;;
70406;SDS011;57821;52.202;0.154;2022-07-03T14:08:36;5.88;;;1.20;;
70406;SDS011;57821;52.202;0.154;2022-07-03T14:11:02;3.58;;;1.00;;
70406;SDS011;57821;52.202;0.154;2022-07-03T14:13:29;3.53;;;0.80;;
70406;SDS011;57821;52.202;0.154;2022-07-03T14:15:55;3.63;;;0.85;;
70406;SDS011;57821;52.202;0.154;2022-07-03T14:18:22;5.22;;;1.17;;
70406;SDS011;57821;52.202;0.154;2022-07-03T14:20:49;4.65;;;0.93;;
70406;SDS011;57821;52.202;0.154;2022-07-03T14:23:15;2.80;;;0.75;;
70406;SDS011;57821;52.202;0.154;2022-07-03T14:25:42;5.32;;;0.80;;
70406;SDS011;57821;52.202;0.154;2022-07-03T14:28:08;4.90;;;1.05;;
70406;SDS011;57821;52.202;0.154;2022-07-03T14:30:35;4.10;;;0.75;;
70406;SDS011;57821;52.202;0.154;2022-07-03T14:33:01;4.47;;;1.23;;
70406;SDS011;57821;52.202;0.154;2022-07-03T14:35:28;4.22;;;0.90;;
70406;SDS011;57821;52.202;0.154;2022-07-03T14:37:54;3.28;;;0.63;;
70406;SDS011;57821;52.202;0.154;2022-07-03T14:40:21;6.10;;;0.90;;
70406;SDS011;57821;52.202;0.154;2022-07-03T14:42:47;5.63;;;1.27;;
70406;SDS011;57821;52.202;0.154;2022-07-03T14:45:14;4.53;;;0.90;;
70406;SDS011;57821;52.202;0.154;2022-07-03T14:47:40;5.43;;;1.05;;
70406;SDS011;57821;52.202;0.154;2022-07-03T14:50:07;4.25;;;0.90;;
70406;SDS011;57821;52.202;0.154;2022-07-03T14:52:34;6.18;;;0.70;;
70406;SDS011;57821;52.202;0.154;2022-07-03T14:55:00;4.57;;;0.77;;
70406;SDS011;57821;52.202;0.154;2022-07-03T14:57:31;3.47;;;0.73;;
70406;SDS011;57821;52.202;0.154;2022-07-03T15:00:07;8.75;;;0.93;;
70406;SDS011;57821;52.202;0.154;2022-07-03T15:02:48;4.22;;;0.70;;
70406;SDS011;57821;52.202;0.154;2022-07-03T15:05:19;5.75;;;0.70;;
70406;SDS011;57821;52.202;0.154;2022-07-03T15:07:59;3.20;;;0.90;;
70406;SDS011;57821;52.202;0.154;2022-07-03T15:10:33;4.88;;;1.02;;
70406;SDS011;57821;52.202;0.154;2022-07-03T15:13:03;4.03;;;0.70;;
70406;SDS011;57821;52.202;0.154;2022-07-03T15:15:30;5.80;;;0.75;;
70406;SDS011;57821;52.202;0.154;2022-07-03T15:17:59;3.08;;;0.80;;
70406;SDS011;57821;52.202;0.154;2022-07-03T15:20:31;4.18;;;0.80;;
70406;SDS011;57821;52.202;0.154;2022-07-03T15:23:00;3.65;;;0.90;;
70406;SDS011;57821;52.202;0.154;2022-07-03T15:25:29;3.78;;;0.82;;
70406;SDS011;57821;52.202;0.154;2022-07-03T15:27:57;5.03;;;0.93;;
70406;SDS011;57821;52.202;0.154;2022-07-03T15:30:25;5.18;;;0.90;;
70406;SDS011;57821;52.202;0.154;2022-07-03T15:32:53;4.15;;;0.85;;
70406;SDS011;57821;52.202;0.154;2022-07-03T15:35:21;3.72;;;0.90;;
70406;SDS011;57821;52.202;0.154;2022-07-03T15:37:53;3.45;;;0.90;;
70406;SDS011;57821;52.202;0.154;2022-07-03T15:40:45;5.40;;;0.98;;
70406;SDS011;57821;52.202;0.154;2022-07-03T15:51:27;4.43;;;0.93;;
70406;SDS011;57821;52.202;0.154;2022-07-03T15:54:00;3.75;;;0.90;;
70406;SDS011;57821;52.202;0.154;2022-07-03T15:56:31;6.05;;;1.00;;
70406;SDS011;57821;52.202;0.154;2022-07-03T15:59:04;6.05;;;0.95;;
70406;SDS011;57821;52.202;0.154;2022-07-03T16:01:34;3.72;;;1.02;;
70406;SDS011;57821;52.202;0.154;2022-07-03T16:04:10;3.17;;;0.77;;
70406;SDS011;57821;52.202;0.154;2022-07-03T16:06:46;4.78;;;1.00;;
70406;SDS011;57821;52.202;0.154;2022-07-03T16:09:14;4.63;;;1.00;;
70406;SDS011;57821;52.202;0.154;2022-07-03T16:11:40;3.25;;;1.20;;
70406;SDS011;57821;52.202;0.154;2022-07-03T16:14:08;6.72;;;1.30;;
70406;SDS011;57821;52.202;0.154;2022-07-03T16:16:36;4.97;;;1.10;;
70406;SDS011;57821;52.202;0.154;2022-07-03T16:19:05;4.90;;;1.25;;
70406;SDS011;57821;52.202;0.154;2022-07-03T16:21:32;5.13;;;1.35;;
70406;SDS011;57821;52.202;0.154;2022-07-03T16:24:02;4.38;;;1.50;;
70406;SDS011;57821;52.202;0.154;2022-07-03T16:26:30;4.25;;;1.40;;
70406;SDS011;57821;52.202;0.154;2022-07-03T16:29:00;4.63;;;1.38;;
70406;SDS011;57821;52.202;0.154;2022-07-03T16:31:36;6.53;;;1.27;;
70406;SDS011;57821;52.202;0.154;2022-07-03T16:34:14;3.85;;;1.15;;
70406;SDS011;57821;52.202;0.154;2022-07-03T16:36:48;4.93;;;1.20;;
70406;SDS011;57821;52.202;0.154;2022-07-03T16:39:53;5.45;;;1.33;;
70406;SDS011;57821;52.202;0.154;2022-07-03T16:42:14;4.50;;;1.10;;